Time,TemperatureF,DewpointF,PressureIn,WindDirection,WindDirectionDegrees,WindSpeedMPH,WindSpeedGustMPH,Humidity,HourlyPrecipIn,Conditions,Clouds,dailyrainin,SolarRadiationWatts/m^2,SoftwareType,DateUTC
2013-07-12 00:00:00,56.0,47.0,-100.00,SSW,203,0.0,1.0,71,-99.99,,,0.00,0.000000,,2013-07-12 06:00:00,
2013-07-12 00:52:00,56.0,47.0,-100.00,SSW,203,0.0,1.0,71,-99.99,,,0.00,0.000000,,2013-07-12 06:52:00,
2013-07-12 01:00:00,55.0,-99.9,-100.00,North,-999,-999.0,-999.0,-999,-99.99,,,0.00,,,2013-07-12 07:00:00,
2013-07-12 02:00:00,56.0,48.0,-100.00,SE,138,1.0,2.0,75,-99.99,,,0.00,0.000000,,2013-07-12 08:00:00,
2013-07-12 02:53:00,56.0,48.0,-100.00,SE,138,1.0,2.0,75,-99.99,,,0.00,0.000000,,2013-07-12 08:53:00,
2013-07-12 03:00:00,53.0,46.0,-100.00,SE,132,1.0,3.0,76,-99.99,,,-99.99,0.000000,,2013-07-12 09:00:00,
2013-07-12 04:00:00,50.0,45.0,-100.00,SSE,153,0.0,1.0,82,-99.99,,,0.00,0.000000,,2013-07-12 10:00:00,
2013-07-12 05:00:00,50.0,47.0,-100.00,South,175,0.0,3.0,88,-99.99,,,0.00,0.000000,,2013-07-12 11:00:00,
2013-07-12 06:00:00,53.0,49.0,-100.00,South,176,1.0,4.0,87,-99.99,,,0.00,0.900000,,2013-07-12 12:00:00,
2013-07-12 07:00:00,52.0,48.0,-100.00,SSE,155,0.0,2.0,84,-99.99,,,0.00,22.299999,,2013-07-12 13:00:00,
2013-07-12 07:53:00,52.0,48.0,-100.00,SSE,155,0.0,2.0,84,-99.99,,,0.00,22.299999,,2013-07-12 13:53:00,
2013-07-12 08:00:00,59.0,52.0,-100.00,South,169,1.0,3.0,78,-99.99,,,0.00,41.200001,,2013-07-12 14:00:00,
2013-07-12 08:53:00,59.0,52.0,-100.00,South,169,1.0,3.0,78,-99.99,,,0.00,41.200001,,2013-07-12 14:53:00,
2013-07-12 09:00:00,65.0,53.0,-100.00,West,266,1.0,3.0,64,-99.99,,,0.00,70.800003,,2013-07-12 15:00:00,
2013-07-12 10:00:00,69.0,51.0,-100.00,WNW,302,1.0,4.0,53,-99.99,,,-99.99,616.299988,,2013-07-12 16:00:00,
2013-07-12 11:00:00,73.0,50.0,-100.00,WNW,301,1.0,5.0,45,-99.99,,,-99.99,780.799988,,2013-07-12 17:00:00,
2013-07-12 12:00:00,77.0,48.0,-100.00,WNW,302,2.0,5.0,36,-99.99,,,-99.99,960.900024,,2013-07-12 18:00:00,
2013-07-12 13:00:00,77.0,45.0,-100.00,WNW,286,2.0,6.0,32,-99.99,,,-99.99,,,2013-07-12 19:00:00,
2013-07-12 14:00:00,73.0,41.0,-100.00,WNW,292,2.0,7.0,32,-99.99,,,0.00,759.799988,,2013-07-12 20:00:00,
2013-07-12 15:00:00,72.0,43.0,-100.00,West,262,3.0,7.0,35,-99.99,,,0.00,768.900024,,2013-07-12 21:00:00,
2013-07-12 16:00:00,71.0,48.0,-100.00,West,260,3.0,7.0,45,-99.99,,,0.00,328.100006,,2013-07-12 22:00:00,
2013-07-12 17:00:00,73.0,48.0,-100.00,West,271,2.0,5.0,42,-99.99,,,0.00,282.100006,,2013-07-12 23:00:00,
2013-07-12 17:58:00,73.0,48.0,-100.00,West,271,2.0,5.0,42,-99.99,,,0.00,282.100006,,2013-07-12 23:58:00,
2013-07-12 18:00:00,73.0,45.0,-100.00,WNW,299,1.0,4.0,36,-99.99,,,0.00,204.800003,,2013-07-13 00:00:00,
2013-07-12 18:56:00,73.0,45.0,-100.00,WNW,299,1.0,4.0,36,-99.99,,,0.00,204.800003,,2013-07-13 00:56:00,
2013-07-12 19:56:00,69.0,41.0,-100.00,WNW,294,1.0,4.0,36,-99.99,,,-99.99,108.699997,,2013-07-13 01:56:00,
2013-07-12 20:00:00,66.0,42.0,-100.00,West,271,1.0,3.0,42,-99.99,,,-99.99,44.900002,,2013-07-13 02:00:00,
2013-07-12 20:55:00,66.0,42.0,-100.00,West,271,1.0,3.0,42,-99.99,,,-99.99,44.900002,,2013-07-13 02:55:00,
2013-07-12 21:00:00,61.0,43.0,-100.00,South,181,0.0,1.0,51,-99.99,,,0.00,0.900000,,2013-07-13 03:00:00,
2013-07-12 21:57:00,61.0,43.0,-100.00,South,181,0.0,1.0,51,-99.99,,,0.00,0.900000,,2013-07-13 03:57:00,
2013-07-12 22:00:00,58.0,44.0,-100.00,SSE,154,0.0,2.0,59,-99.99,,,0.00,0.000000,,2013-07-13 04:00:00,
2013-07-12 22:52:00,58.0,44.0,-100.00,SSE,154,0.0,2.0,59,-99.99,,,0.00,0.000000,,2013-07-13 04:52:00,